Time;durP1;ratioP1;P1;durP2;ratioP2;P2;SDS_P1;SDS_P2;PMS_P1;PMS_P2;Temp;Humidity;BMP_temperature;BMP_pressure;BME280_temperature;BME280_humidity;BME280_pressure;Samples;Min_cycle;Max_cycle;Signal;HPM_P1;HPM_P2
2022/05/09 00:01:49;;;;;;;;;;;;;;;11.49;50.87;102701.69;5026579;28;19935;-46
2022/05/09 00:04:14;;;;;;;;;;;;;;;11.49;50.81;102702.53;5021538;28;19979;-47
2022/05/09 00:06:39;;;;;;;;;;;;;;;11.53;50.88;102701.53;5027269;28;19921;-47
2022/05/09 00:09:05;;;;;;;;;;;;;;;11.55;50.92;102701.47;5023409;28;19976;-49
2022/05/09 00:11:30;;;;;;;;;;;;;;;11.58;50.94;102696.97;5027634;28;19921;-47
2022/05/09 00:13:56;;;;;;;;;;;;;;;11.70;51.07;102702.81;5028469;28;19952;-46
2022/05/09 00:16:21;;;;;;;;;;;;;;;11.73;50.62;102703.56;5028422;28;20395;-46
2022/05/09 00:18:47;;;;;;;;;;;;;;;11.80;50.61;102708.66;5024590;28;19920;-49
2022/05/09 00:21:12;;;;;;;;;;;;;;;11.77;50.75;102706.94;5028253;28;20396;-54
2022/05/09 00:23:38;;;;;;;;;;;;;;;11.71;50.95;102701.88;5020653;28;20010;-48
2022/05/09 00:26:04;;;;;;;;;;;;;;;11.69;50.93;102706.34;5020461;28;20423;-53
2022/05/09 00:28:29;;;;;;;;;;;;;;;11.66;50.88;102706.44;5023222;28;19940;-51
2022/05/09 00:30:55;;;;;;;;;;;;;;;11.61;51.12;102708.34;5025625;28;19935;-52
2022/05/09 00:33:20;;;;;;;;;;;;;;;11.60;51.25;102712.75;5021291;28;19917;-49
2022/05/09 00:35:46;;;;;;;;;;;;;;;11.62;51.36;102715.34;5026863;28;19925;-46
2022/05/09 00:38:11;;;;;;;;;;;;;;;11.55;51.34;102715.53;5028252;28;20353;-47
2022/05/09 00:40:37;;;;;;;;;;;;;;;11.51;51.36;102723.56;5031832;28;20040;-46
2022/05/09 00:43:03;;;;;;;;;;;;;;;11.39;51.92;102720.41;5027533;28;19923;-47
2022/05/09 00:45:28;;;;;;;;;;;;;;;11.27;52.17;102723.41;5030228;28;19917;-48
2022/05/09 00:47:54;;;;;;;;;;;;;;;11.21;52.53;102724.44;5029485;28;20288;-46
2022/05/09 00:50:21;;;;;;;;;;;;;;;11.18;52.27;102721.88;5031671;28;19925;-48
2022/05/09 00:52:50;;;;;;;;;;;;;;;11.17;52.32;102719.31;5030254;28;20760;-48
2022/05/09 00:55:20;;;;;;;;;;;;;;;11.16;52.60;102718.44;5027279;28;19936;-49
2022/05/09 00:57:56;;;;;;;;;;;;;;;11.06;52.73;102720.47;5006058;28;19929;-49
2022/05/09 01:00:23;;;;;;;;;;;;;;;11.04;52.71;102730.16;5028896;28;19935;-52
2022/05/09 01:03:10;;;;;;;;;;;;;;;11.10;52.82;102734.44;5027260;28;20011;-50
2022/05/09 01:05:36;;;;;;;;;;;;;;;11.15;52.75;102724.59;5028564;28;20008;-50
2022/05/09 01:08:02;;;;;;;;;;;;;;;11.21;52.66;102727.06;5027032;28;20015;-46
2022/05/09 01:10:30;;;;;;;;;;;;;;;11.28;52.66;102728.59;5031863;28;20185;-47
2022/05/09 01:12:56;;;;;;;;;;;;;;;11.30;52.93;102725.94;5027361;28;19920;-46
2022/05/09 01:15:22;;;;;;;;;;;;;;;11.21;52.97;102729.72;5026023;28;19974;-50
2022/05/09 01:17:50;;;;;;;;;;;;;;;11.22;53.10;102728.81;5028861;28;19917;-48
2022/05/09 01:20:17;;;;;;;;;;;;;;;11.28;53.13;102728.59;5029030;28;20308;-46
2022/05/09 01:22:42;;;;;;;;;;;;;;;11.37;52.99;102726.63;5029022;28;20358;-46
2022/05/09 01:25:10;;;;;;;;;;;;;;;11.46;53.17;102733.41;5027061;28;20409;-48
2022/05/09 01:27:38;;;;;;;;;;;;;;;11.49;52.98;102721.00;5023786;28;19918;-49
2022/05/09 01:30:06;;;;;;;;;;;;;;;11.52;53.14;102723.53;5025316;28;19921;-49
2022/05/09 01:32:34;;;;;;;;;;;;;;;11.58;53.14;102728.59;5028025;28;20011;-47
2022/05/09 01:35:03;;;;;;;;;;;;;;;11.63;53.12;102719.72;5023365;28;19917;-51
2022/05/09 01:37:30;;;;;;;;;;;;;;;11.60;53.19;102723.31;5028856;28;19917;-49
2022/05/09 01:39:55;;;;;;;;;;;;;;;11.61;53.34;102724.16;5026045;28;19928;-47
2022/05/09 01:42:21;;;;;;;;;;;;;;;11.63;53.39;102720.59;5025001;28;19917;-48
2022/05/09 01:44:46;;;;;;;;;;;;;;;11.61;53.71;102718.88;5029349;28;20020;-48
2022/05/09 01:49:55;;;;;;;;;;;;;;;11.62;54.01;102723.25;5021562;28;19935;-49
2022/05/09 01:52:21;;;;;;;;;;;;;;;11.62;53.99;102721.50;5026482;28;19920;-48
2022/05/09 01:54:46;;;;;;;;;;;;;;;11.58;54.19;102728.59;5021530;28;19921;-49
2022/05/09 01:57:12;;;;;;;;;;;;;;;11.55;54.45;102726.09;5020168;28;19971;-52
2022/05/09 01:59:38;;;;;;;;;;;;;;;11.53;54.40;102727.91;5020291;28;19958;-46
2022/05/09 02:02:09;;;;;;;;;;;;;;;11.61;54.40;102718.88;5028759;28;20296;-47
2022/05/09 02:04:35;;;;;;;;;;;;;;;11.64;54.23;102721.44;5025880;28;19913;-49
2022/05/09 02:07:01;;;;;;;;;;;;;;;11.65;54.32;102723.16;5024110;28;20039;-46
2022/05/09 02:09:26;;;;;;;;;;;;;;;11.61;54.42;102725.03;5025523;28;19936;-46
2022/05/09 02:11:51;;;;;;;;;;;;;;;11.59;54.21;102732.97;5008455;28;19924;-49
2022/05/09 02:14:17;;;;;;;;;;;;;;;11.63;54.41;102725.84;4993245;28;19917;-45
2022/05/09 02:16:42;;;;;;;;;;;;;;;11.64;54.37;102729.34;5025100;28;19917;-46
2022/05/09 02:19:08;;;;;;;;;;;;;;;11.63;54.37;102717.06;5019927;28;19917;-51
2022/05/09 02:21:33;;;;;;;;;;;;;;;11.66;54.29;102719.63;5024853;28;19921;-46
2022/05/09 02:23:59;;;;;;;;;;;;;;;11.67;54.47;102729.25;5024118;28;19986;-46
2022/05/09 02:26:24;;;;;;;;;;;;;;;11.61;54.48;102732.94;5021641;28;20396;-46
2022/05/09 02:28:50;;;;;;;;;;;;;;;11.56;54.45;102732.22;5024903;28;20370;-51
2022/05/09 02:31:15;;;;;;;;;;;;;;;11.54;54.72;102727.00;5030260;28;20287;-53
2022/05/09 02:33:40;;;;;;;;;;;;;;;11.53;54.90;102727.91;5022055;28;19921;-46
2022/05/09 02:36:06;;;;;;;;;;;;;;;11.55;54.73;102733.13;5012340;28;19928;-49
2022/05/09 02:38:31;;;;;;;;;;;;;;;11.60;54.77;102736.50;5023659;28;20371;-47
2022/05/09 02:40:56;;;;;;;;;;;;;;;11.61;54.66;102735.59;5024527;28;19928;-46
2022/05/09 02:43:22;;;;;;;;;;;;;;;11.64;54.48;102739.91;5025350;28;20377;-48
2022/05/09 02:45:48;;;;;;;;;;;;;;;11.66;54.61;102746.00;5024659;28;20031;-47
2022/05/09 02:48:13;;;;;;;;;;;;;;;11.68;54.57;102747.66;5025419;28;20266;-50
2022/05/09 02:50:39;;;;;;;;;;;;;;;11.69;54.45;102752.03;5013472;28;19948;-52
2022/05/09 02:53:04;;;;;;;;;;;;;;;11.66;54.55;102754.75;5029108;28;19917;-46
2022/05/09 02:55:31;;;;;;;;;;;;;;;11.65;54.78;102762.72;5025260;28;20315;-49
2022/05/09 02:57:57;;;;;;;;;;;;;;;11.60;54.78;102760.22;5028640;28;20377;-45
2022/05/09 03:00:24;;;;;;;;;;;;;;;11.49;54.77;102757.91;5022903;28;19913;-47
2022/05/09 03:05:35;;;;;;;;;;;;;;;11.40;54.92;102760.81;5021695;28;19920;-47
2022/05/09 03:08:01;;;;;;;;;;;;;;;11.34;55.23;102753.06;5028115;28;19928;-46
2022/05/09 03:10:28;;;;;;;;;;;;;;;11.31;55.37;102754.03;5022488;28;19916;-46
2022/05/09 03:12:56;;;;;;;;;;;;;;;11.32;55.19;102754.88;5026833;28;19920;-46
2022/05/09 03:15:21;;;;;;;;;;;;;;;11.28;55.07;102756.75;5026973;28;19944;-48
2022/05/09 03:17:46;;;;;;;;;;;;;;;11.29;55.33;102761.97;5030782;28;19967;-46
2022/05/09 03:20:12;;;;;;;;;;;;;;;11.33;55.18;102759.25;5022908;28;20003;-49
2022/05/09 03:22:37;;;;;;;;;;;;;;;11.34;55.09;102764.50;5025176;28;19979;-46
2022/05/09 03:25:03;;;;;;;;;;;;;;;11.34;55.00;102760.97;5029843;28;19949;-50
2022/05/09 03:27:28;;;;;;;;;;;;;;;11.35;54.97;102758.28;5025158;28;19921;-46
2022/05/09 03:29:54;;;;;;;;;;;;;;;11.38;55.10;102760.84;5013288;28;19924;-49
2022/05/09 03:32:19;;;;;;;;;;;;;;;11.40;54.92;102758.19;5028992;28;19933;-46
2022/05/09 03:34:46;;;;;;;;;;;;;;;11.42;54.73;102754.59;5027460;28;19960;-49
2022/05/09 03:37:12;;;;;;;;;;;;;;;11.47;54.95;102758.88;5030562;28;20313;-51
2022/05/09 03:39:37;;;;;;;;;;;;;;;11.46;54.81;102763.25;5027190;28;20368;-47
2022/05/09 03:42:02;;;;;;;;;;;;;;;11.42;54.79;102757.22;5027311;28;20003;-49
2022/05/09 03:44:28;;;;;;;;;;;;;;;11.43;54.68;102765.97;5026471;28;19924;-46
2022/05/09 03:46:53;;;;;;;;;;;;;;;11.44;54.74;102763.31;5027971;28;19987;-48
2022/05/09 03:49:19;;;;;;;;;;;;;;;11.46;54.80;102768.53;5024499;28;19913;-46
2022/05/09 03:51:44;;;;;;;;;;;;;;;11.47;54.69;102764.97;5027040;28;20365;-46
2022/05/09 03:54:10;;;;;;;;;;;;;;;11.47;54.73;102759.72;5026482;28;20313;-51
2022/05/09 03:56:35;;;;;;;;;;;;;;;11.46;54.64;102765.88;5026611;28;19975;-49
2022/05/09 03:59:00;;;;;;;;;;;;;;;11.47;54.68;102764.97;5027780;28;19917;-51
2022/05/09 04:01:26;;;;;;;;;;;;;;;11.49;54.66;102772.88;5020178;28;19916;-49
2022/05/09 04:03:51;;;;;;;;;;;;;;;11.49;54.82;102773.72;5010094;28;19967;-49
2022/05/09 04:06:16;;;;;;;;;;;;;;;11.49;54.63;102772.88;5020050;28;19975;-49
2022/05/09 04:08:42;;;;;;;;;;;;;;;11.46;54.55;102765.88;5020022;28;19959;-50
2022/05/09 04:11:07;;;;;;;;;;;;;;;11.45;54.75;102766.78;5023239;28;19925;-49
2022/05/09 04:13:32;;;;;;;;;;;;;;;11.41;54.98;102766.03;5023699;28;20569;-51
2022/05/09 04:18:42;;;;;;;;;;;;;;;11.34;55.08;102761.84;5026288;28;20012;-50
2022/05/09 04:21:08;;;;;;;;;;;;;;;11.31;55.14;102766.34;5022973;28;19921;-48
2022/05/09 04:23:34;;;;;;;;;;;;;;;11.29;55.16;102767.22;5011418;28;19967;-48
2022/05/09 04:26:00;;;;;;;;;;;;;;;11.29;55.06;102766.38;5013195;28;19936;-49
2022/05/09 04:28:26;;;;;;;;;;;;;;;11.18;55.22;102774.59;5015473;28;19917;-50
2022/05/09 04:30:51;;;;;;;;;;;;;;;11.12;55.38;102774.75;5015243;28;19927;-51
2022/05/09 04:33:17;;;;;;;;;;;;;;;11.09;55.46;102778.34;5022350;28;20008;-49
2022/05/09 04:35:42;;;;;;;;;;;;;;;11.04;55.57;102782.84;5023822;28;19924;-49
2022/05/09 04:38:12;;;;;;;;;;;;;;;11.04;55.67;102779.38;5020914;28;20093;-52
2022/05/09 04:40:38;;;;;;;;;;;;;;;11.09;55.58;102785.41;5025064;28;20323;-52
2022/05/09 04:43:03;;;;;;;;;;;;;;;11.15;55.41;102772.03;5017040;28;19921;-50
2022/05/09 04:45:29;;;;;;;;;;;;;;;11.22;55.24;102780.63;5023109;28;19913;-50
2022/05/09 04:47:55;;;;;;;;;;;;;;;11.30;55.00;102783.94;5026202;28;19967;-49
2022/05/09 04:50:22;;;;;;;;;;;;;;;11.37;55.23;102779.34;5022608;28;19917;-54
2022/05/09 04:52:47;;;;;;;;;;;;;;;11.40;55.11;102779.28;5022573;28;19921;-50
2022/05/09 04:55:13;;;;;;;;;;;;;;;11.40;55.17;102776.63;5022638;28;19923;-52
2022/05/09 04:57:39;;;;;;;;;;;;;;;11.41;55.09;102781.00;5022997;28;19960;-50
2022/05/09 05:00:05;;;;;;;;;;;;;;;11.46;55.11;102779.06;5018008;28;19925;-50
2022/05/09 05:02:31;;;;;;;;;;;;;;;11.50;55.08;102775.44;5011950;28;20007;-51
2022/05/09 05:04:56;;;;;;;;;;;;;;;11.53;54.85;102780.63;5021835;28;19935;-49
2022/05/09 05:07:21;;;;;;;;;;;;;;;11.57;55.09;102776.97;5020097;28;20353;-49
2022/05/09 05:09:47;;;;;;;;;;;;;;;11.62;54.93;102790.06;5021982;28;19921;-52
2022/05/09 05:12:12;;;;;;;;;;;;;;;11.68;54.88;102784.56;5016117;28;19924;-49
2022/05/09 05:14:38;;;;;;;;;;;;;;;11.72;54.73;102791.50;5023232;28;19921;-49
2022/05/09 05:17:03;;;;;;;;;;;;;;;11.72;54.72;102790.66;5004436;28;19925;-51
2022/05/09 05:19:31;;;;;;;;;;;;;;;11.73;54.72;102795.88;5024853;28;19966;-49
2022/05/09 05:21:57;;;;;;;;;;;;;;;11.79;54.61;102799.25;5025235;28;19964;-49
2022/05/09 05:24:22;;;;;;;;;;;;;;;11.82;54.41;102807.03;4998062;28;19987;-48
2022/05/09 05:26:47;;;;;;;;;;;;;;;11.85;54.17;102801.66;5025573;28;19928;-50
2022/05/09 05:29:14;;;;;;;;;;;;;;;11.88;54.28;102798.94;5009007;28;20435;-50
2022/05/09 05:31:39;;;;;;;;;;;;;;;11.92;54.24;102804.97;5030506;28;19913;-50
2022/05/09 05:34:05;;;;;;;;;;;;;;;11.96;54.08;102793.44;5031003;28;20000;-51
2022/05/09 05:36:30;;;;;;;;;;;;;;;11.96;53.81;102798.72;5027664;28;19927;-53
2022/05/09 05:38:55;;;;;;;;;;;;;;;11.95;53.89;102795.19;5028725;28;20380;-52
2022/05/09 05:41:22;;;;;;;;;;;;;;;11.99;53.81;102798.66;5031849;28;19920;-46
2022/05/09 05:43:47;;;;;;;;;;;;;;;12.02;53.66;102788.00;5029368;28;20039;-47
2022/05/09 05:46:13;;;;;;;;;;;;;;;12.04;53.70;102797.59;5033068;28;20383;-50
2022/05/09 05:48:39;;;;;;;;;;;;;;;12.08;53.42;102797.50;5029407;28;19928;-46
2022/05/09 05:51:04;;;;;;;;;;;;;;;12.11;53.02;102803.56;5027363;28;19912;-46
2022/05/09 05:53:29;;;;;;;;;;;;;;;12.15;53.03;102802.56;5028970;28;19923;-47
2022/05/09 05:55:58;;;;;;;;;;;;;;;12.20;52.75;102797.97;5030438;28;20006;-47
2022/05/09 05:58:26;;;;;;;;;;;;;;;12.26;52.75;102801.34;5011920;28;19920;-49
2022/05/09 06:00:52;;;;;;;;;;;;;;;12.30;52.53;102805.63;5029412;28;20303;-49
2022/05/09 06:03:17;;;;;;;;;;;;;;;12.35;52.55;102804.56;5030637;28;19916;-46
2022/05/09 06:05:42;;;;;;;;;;;;;;;12.40;52.18;102804.41;5029797;28;19917;-46
2022/05/09 06:08:08;;;;;;;;;;;;;;;12.44;52.28;102800.75;5027623;28;19929;-46
2022/05/09 06:10:33;;;;;;;;;;;;;;;12.48;52.03;102802.34;5030810;28;19920;-46
2022/05/09 06:13:01;;;;;;;;;;;;;;;12.49;52.03;102809.34;5030170;28;20011;-47
2022/05/09 06:15:28;;;;;;;;;;;;;;;12.50;51.92;102811.09;5030931;28;20000;-51
2022/05/09 06:17:54;;;;;;;;;;;;;;;12.50;51.96;102810.25;5032938;28;21169;-47
2022/05/09 06:20:20;;;;;;;;;;;;;;;12.55;51.91;102815.38;5031641;28;19909;-50
2022/05/09 06:22:45;;;;;;;;;;;;;;;12.59;51.55;102809.06;5029997;28;19921;-47
2022/05/09 06:25:12;;;;;;;;;;;;;;;12.62;51.47;102819.53;5023026;28;19924;-48
2022/05/09 06:27:38;;;;;;;;;;;;;;;12.65;51.55;102817.66;5030556;28;19921;-48
2022/05/09 06:30:04;;;;;;;;;;;;;;;12.68;51.45;102819.31;5024668;28;20393;-47
2022/05/09 06:32:30;;;;;;;;;;;;;;;12.73;51.45;102814.75;5022525;28;19909;-46
2022/05/09 06:34:55;;;;;;;;;;;;;;;12.78;51.38;102819.88;5030378;28;19920;-46
2022/05/09 06:37:20;;;;;;;;;;;;;;;12.84;51.32;102819.69;5028364;28;19916;-47
2022/05/09 06:39:46;;;;;;;;;;;;;;;12.88;51.25;102820.44;5024108;28;19943;-46
2022/05/09 06:42:12;;;;;;;;;;;;;;;12.90;51.19;102814.16;5026211;28;20341;-50
2022/05/09 06:44:37;;;;;;;;;;;;;;;12.95;51.04;102816.66;5027496;28;20420;-47
2022/05/09 06:47:06;;;;;;;;;;;;;;;12.98;50.95;102816.53;5030938;28;20039;-47
2022/05/09 06:49:31;;;;;;;;;;;;;;;13.02;51.02;102812.00;5027841;28;20010;-49
2022/05/09 06:51:57;;;;;;;;;;;;;;;13.05;50.74;102818.06;5028348;28;19984;-49
2022/05/09 06:54:22;;;;;;;;;;;;;;;13.09;50.72;102824.97;5026348;28;19924;-49
2022/05/09 06:56:48;;;;;;;;;;;;;;;13.13;50.55;102822.22;5014079;28;19935;-46
2022/05/09 06:59:13;;;;;;;;;;;;;;;13.17;50.59;102822.03;5026530;28;19929;-50
2022/05/09 07:01:38;;;;;;;;;;;;;;;13.20;50.61;102818.44;5030214;28;19951;-46
2022/05/09 07:04:04;;;;;;;;;;;;;;;13.23;50.56;102818.34;5022792;28;20012;-49
2022/05/09 07:06:29;;;;;;;;;;;;;;;13.27;50.43;102818.16;5023888;28;19936;-48
2022/05/09 07:08:55;;;;;;;;;;;;;;;13.32;50.49;102820.66;5024601;28;19925;-47
2022/05/09 07:11:20;;;;;;;;;;;;;;;13.35;50.35;102822.31;5023494;28;19959;-48
2022/05/09 07:13:45;;;;;;;;;;;;;;;13.37;50.26;102824.00;5027443;28;19913;-45
2022/05/09 07:16:11;;;;;;;;;;;;;;;13.41;50.39;102820.31;5029711;28;20004;-46
2022/05/09 07:18:38;;;;;;;;;;;;;;;13.46;50.17;102817.50;5028284;28;19913;-50
2022/05/09 07:21:05;;;;;;;;;;;;;;;13.51;50.26;102820.00;5025581;28;19917;-49
2022/05/09 07:23:30;;;;;;;;;;;;;;;13.54;50.15;102819.88;5023517;28;20431;-48
2022/05/09 07:25:56;;;;;;;;;;;;;;;13.57;49.97;102812.72;5025773;28;19935;-47
2022/05/09 07:28:21;;;;;;;;;;;;;;;13.60;49.99;102809.06;5030506;28;20389;-49
2022/05/09 07:30:47;;;;;;;;;;;;;;;13.63;50.19;102814.25;5003127;28;20510;-46
2022/05/09 07:33:14;;;;;;;;;;;;;;;13.65;50.17;102814.19;5025778;28;19963;-51
2022/05/09 07:35:41;;;;;;;;;;;;;;;13.68;50.18;102807.03;5021745;28;20027;-48
2022/05/09 07:38:07;;;;;;;;;;;;;;;13.74;49.99;102810.34;5015337;28;19921;-48
2022/05/09 07:40:32;;;;;;;;;;;;;;;13.78;49.82;102817.25;5030350;28;19909;-47
2022/05/09 07:42:58;;;;;;;;;;;;;;;13.84;49.83;102820.50;5026229;28;19944;-49
2022/05/09 07:45:24;;;;;;;;;;;;;;;13.89;49.58;102820.31;5029299;28;19917;-47
2022/05/09 07:47:49;;;;;;;;;;;;;;;13.93;49.90;102811.34;5031658;28;19966;-51
2022/05/09 07:50:15;;;;;;;;;;;;;;;13.96;49.80;102816.53;5025774;28;19921;-46
2022/05/09 07:52:44;;;;;;;;;;;;;;;13.98;49.73;102814.69;5020381;28;20024;-49
2022/05/09 07:55:13;;;;;;;;;;;;;;;14.00;49.69;102807.53;5027368;28;19917;-46
2022/05/09 07:57:38;;;;;;;;;;;;;;;14.04;49.75;102810.94;5005245;28;20415;-49
2022/05/09 08:00:05;;;;;;;;;;;;;;;14.08;49.69;102809.88;5025081;28;20427;-47
2022/05/09 08:02:32;;;;;;;;;;;;;;;14.13;49.51;102804.41;5024444;28;19950;-47
2022/05/09 08:04:57;;;;;;;;;;;;;;;14.19;49.46;102806.81;5029932;28;19928;-46
2022/05/09 08:07:23;;;;;;;;;;;;;;;14.24;49.25;102799.56;5024973;28;19921;-48
2022/05/09 08:09:48;;;;;;;;;;;;;;;14.29;49.33;102796.72;5020709;28;19913;-46
2022/05/09 08:12:14;;;;;;;;;;;;;;;14.31;49.14;102795.72;5020090;28;19931;-50
2022/05/09 08:14:39;;;;;;;;;;;;;;;14.35;49.29;102795.59;5008883;28;19967;-50
2022/05/09 08:17:09;;;;;;;;;;;;;;;14.39;48.99;102798.03;5017790;28;19917;-48
2022/05/09 08:19:34;;;;;;;;;;;;;;;14.43;48.92;102798.81;5023382;28;19917;-48
2022/05/09 08:22:01;;;;;;;;;;;;;;;14.47;48.95;102800.38;5025209;28;19924;-47
2022/05/09 08:24:28;;;;;;;;;;;;;;;14.51;49.00;102791.38;5028467;28;19917;-47
2022/05/09 08:26:54;;;;;;;;;;;;;;;14.56;48.79;102794.72;5025811;28;19956;-47
2022/05/09 08:29:19;;;;;;;;;;;;;;;14.60;48.77;102791.00;5023308;28;19956;-49
2022/05/09 08:31:44;;;;;;;;;;;;;;;14.64;48.72;102789.09;5028369;28;19913;-50
2022/05/09 08:34:10;;;;;;;;;;;;;;;14.70;48.79;102791.50;5028509;28;19917;-47
2022/05/09 08:36:53;;;;;;;;;;;;;;;14.76;48.57;102791.25;5025638;28;19920;-47
2022/05/09 08:39:19;;;;;;;;;;;;;;;14.82;48.54;102789.28;5022429;28;19972;-47
2022/05/09 08:41:59;;;;;;;;;;;;;;;14.85;48.54;102784.69;5025017;28;19908;-48
2022/05/09 08:44:37;;;;;;;;;;;;;;;14.90;48.27;102787.97;5030590;28;20258;-48
2022/05/09 08:47:29;;;;;;;;;;;;;;;14.96;48.30;102791.31;5023404;28;19924;-50
2022/05/09 08:50:01;;;;;;;;;;;;;;;15.01;48.33;102794.63;5024061;28;19921;-49
2022/05/09 08:52:45;;;;;;;;;;;;;;;15.05;48.07;102790.91;5024484;28;19916;-51
2022/05/09 08:55:12;;;;;;;;;;;;;;;15.11;48.00;102790.63;5024657;28;19917;-50
2022/05/09 08:57:43;;;;;;;;;;;;;;;15.15;47.90;102788.69;5031275;28;19920;-46
2022/05/09 09:00:11;;;;;;;;;;;;;;;15.19;47.86;102796.47;5028198;28;20533;-50
2022/05/09 09:02:39;;;;;;;;;;;;;;;15.24;47.64;102786.50;5022669;28;19920;-49
2022/05/09 09:05:05;;;;;;;;;;;;;;;15.30;47.48;102795.13;5026167;28;19924;-48
2022/05/09 09:07:49;;;;;;;;;;;;;;;15.36;47.46;102785.09;5030329;28;19916;-51
2022/05/09 09:10:22;;;;;;;;;;;;;;;15.45;47.09;102785.59;5026119;28;19979;-52
2022/05/09 09:13:06;;;;;;;;;;;;;;;15.51;47.12;102780.00;5030201;28;20028;-47
2022/05/09 09:15:50;;;;;;;;;;;;;;;15.58;46.89;102777.94;5025123;28;19944;-46
2022/05/09 09:18:21;;;;;;;;;;;;;;;15.61;46.88;102780.44;5027463;28;20407;-46
2022/05/09 09:20:47;;;;;;;;;;;;;;;15.69;46.99;102772.97;5011924;28;19917;-53
2022/05/09 09:23:27;;;;;;;;;;;;;;;15.73;46.83;102777.22;5028327;28;19912;-46
2022/05/09 09:26:05;;;;;;;;;;;;;;;15.78;46.61;102775.22;5033831;28;19909;-50
2022/05/09 09:28:36;;;;;;;;;;;;;;;15.81;46.62;102775.03;5029048;28;20328;-49
2022/05/09 09:31:07;;;;;;;;;;;;;;;15.82;46.54;102766.16;5025850;28;19913;-46
2022/05/09 09:33:33;;;;;;;;;;;;;;;15.85;46.67;102762.53;5032195;28;19917;-46
2022/05/09 09:36:07;;;;;;;;;;;;;;;15.91;46.55;102761.38;5028457;28;19913;-45
2022/05/09 09:38:40;;;;;;;;;;;;;;;15.92;46.51;102755.13;5029947;28;19912;-49
2022/05/09 09:41:14;;;;;;;;;;;;;;;15.94;46.23;102758.56;5021121;28;19913;-50
2022/05/09 09:43:40;;;;;;;;;;;;;;;15.97;46.38;102756.63;5029615;28;20380;-51
2022/05/09 09:46:07;;;;;;;;;;;;;;;16.00;46.17;102752.94;5027183;28;19933;-48
2022/05/09 09:48:34;;;;;;;;;;;;;;;16.06;46.03;102750.00;5029392;28;19928;-51
2022/05/09 09:51:03;;;;;;;;;;;;;;;16.12;45.77;102744.38;5029672;28;19921;-53
2022/05/09 09:53:51;;;;;;;;;;;;;;;16.16;45.63;102739.78;5030602;28;19917;-52
2022/05/09 09:56:20;;;;;;;;;;;;;;;16.22;45.44;102743.94;5022528;28;20380;-50
2022/05/09 09:58:45;;;;;;;;;;;;;;;16.27;45.16;102741.88;5030196;28;19966;-51
2022/05/09 10:01:13;;;;;;;;;;;;;;;16.34;44.88;102735.34;5026660;28;19913;-49
2022/05/09 10:03:43;;;;;;;;;;;;;;;16.40;44.82;102739.50;5028959;28;20012;-50
2022/05/09 10:06:16;;;;;;;;;;;;;;;16.44;44.32;102725.13;5027689;28;19921;-51
2022/05/09 10:08:42;;;;;;;;;;;;;;;16.49;43.92;102716.91;5028696;28;19917;-49
2022/05/09 10:11:11;;;;;;;;;;;;;;;16.53;43.80;102715.81;5027228;28;20070;-51
2022/05/09 10:13:39;;;;;;;;;;;;;;;16.59;43.62;102707.50;5028500;28;19920;-52
2022/05/09 10:16:05;;;;;;;;;;;;;;;16.65;43.36;102708.97;5026729;28;20291;-50
2022/05/09 10:18:32;;;;;;;;;;;;;;;16.71;43.20;102709.50;5022658;28;20451;-49
2022/05/09 10:20:59;;;;;;;;;;;;;;;16.77;43.04;102705.69;5028980;28;19917;-51
2022/05/09 10:26:13;;;;;;;;;;;;;;;16.84;42.71;102715.06;5030875;28;19920;-50
2022/05/09 10:28:44;;;;;;;;;;;;;;;16.89;42.38;102714.81;5027854;28;19928;-50
2022/05/09 10:31:12;;;;;;;;;;;;;;;16.95;42.21;102709.19;5029388;28;19988;-52
2022/05/09 10:33:42;;;;;;;;;;;;;;;17.00;42.13;102712.47;5027935;28;20135;-52
2022/05/09 10:36:31;;;;;;;;;;;;;;;17.09;42.19;102710.25;5027303;28;19921;-49
2022/05/09 10:39:11;;;;;;;;;;;;;;;17.12;41.28;102707.44;5018725;28;19916;-50
2022/05/09 10:41:41;;;;;;;;;;;;;;;17.26;40.24;102701.34;5011030;28;20399;-51
2022/05/09 10:44:12;;;;;;;;;;;;;;;17.25;39.84;102699.63;5032312;28;19948;-50
2022/05/09 10:46:41;;;;;;;;;;;;;;;17.27;40.05;102695.06;5026461;28;19920;-49
2022/05/09 10:49:10;;;;;;;;;;;;;;;17.31;39.93;102692.19;5026737;28;19920;-51
2022/05/09 10:51:56;;;;;;;;;;;;;;;17.35;40.08;102692.88;5028519;28;19947;-50
2022/05/09 10:54:26;;;;;;;;;;;;;;;17.39;39.86;102690.88;5028631;28;19913;-49
2022/05/09 10:56:59;;;;;;;;;;;;;;;17.42;39.91;102690.72;5030769;28;20015;-51
2022/05/09 10:59:26;;;;;;;;;;;;;;;17.47;39.70;102683.34;5023301;28;19916;-52
2022/05/09 11:02:07;;;;;;;;;;;;;;;17.50;39.67;102680.50;5021831;28;19920;-50
2022/05/09 11:04:34;;;;;;;;;;;;;;;17.54;39.60;102684.69;5025225;28;19975;-50
2022/05/09 11:07:17;;;;;;;;;;;;;;;17.58;39.43;102678.28;5026662;28;19928;-50
2022/05/09 11:09:58;;;;;;;;;;;;;;;17.59;39.48;102677.31;5023493;28;20011;-53
2022/05/09 11:12:44;;;;;;;;;;;;;;;17.64;39.28;102675.25;5022737;28;19917;-52
2022/05/09 11:15:17;;;;;;;;;;;;;;;17.71;39.14;102683.72;5017457;28;20490;-51
2022/05/09 11:18:01;;;;;;;;;;;;;;;17.79;38.94;102683.28;5022549;28;19923;-51
2022/05/09 11:20:26;;;;;;;;;;;;;;;17.88;38.83;102680.09;5006153;28;19929;-51
2022/05/09 11:22:57;;;;;;;;;;;;;;;17.95;38.72;102672.63;5026289;28;19920;-49
2022/05/09 11:25:26;;;;;;;;;;;;;;;17.99;38.61;102674.19;5029671;28;19909;-47
2022/05/09 11:27:51;;;;;;;;;;;;;;;18.04;38.53;102669.44;5026799;28;19963;-46
2022/05/09 11:30:23;;;;;;;;;;;;;;;18.12;38.48;102674.31;5030638;28;19913;-48
2022/05/09 11:32:53;;;;;;;;;;;;;;;18.17;38.17;102669.56;5024536;28;19920;-49
2022/05/09 11:35:28;;;;;;;;;;;;;;;18.24;37.86;102668.25;5024931;28;19917;-47
2022/05/09 11:37:53;;;;;;;;;;;;;;;18.28;37.66;102667.13;5026257;28;19983;-47
2022/05/09 11:40:27;;;;;;;;;;;;;;;18.30;37.44;102660.84;5021915;28;19957;-47
2022/05/09 11:46:00;;;;;;;;;;;;;;;18.28;37.16;102652.97;5025414;28;19920;-49
2022/05/09 11:48:35;;;;;;;;;;;;;;;18.34;37.03;102649.06;5026624;28;19979;-46
2022/05/09 11:51:19;;;;;;;;;;;;;;;18.40;37.07;102641.53;5008734;28;19940;-49
2022/05/09 11:53:47;;;;;;;;;;;;;;;18.48;36.99;102649.06;5025925;28;19959;-47
2022/05/09 11:56:13;;;;;;;;;;;;;;;18.51;36.68;102638.22;5020039;28;19921;-47
2022/05/09 11:58:41;;;;;;;;;;;;;;;18.56;36.54;102644.09;5021829;28;19921;-47
2022/05/09 12:01:07;;;;;;;;;;;;;;;18.61;36.36;102642.97;5025031;28;19929;-47
2022/05/09 12:03:38;;;;;;;;;;;;;;;18.63;36.58;102635.75;5022664;28;19928;-50
2022/05/09 12:06:05;;;;;;;;;;;;;;;18.66;36.52;102640.91;5025162;28;20008;-49
2022/05/09 12:08:41;;;;;;;;;;;;;;;18.70;36.86;102631.72;5005549;28;19921;-47
2022/05/09 12:11:23;;;;;;;;;;;;;;;18.70;36.29;102627.28;5019983;28;20311;-47
2022/05/09 12:13:52;;;;;;;;;;;;;;;18.72;36.51;102630.69;5024657;28;19913;-46
2022/05/09 12:16:30;;;;;;;;;;;;;;;18.76;36.33;102626.03;5028287;28;19921;-49
2022/05/09 12:19:00;;;;;;;;;;;;;;;18.78;36.45;102632.13;5020422;28;20067;-47
2022/05/09 12:21:30;;;;;;;;;;;;;;;18.82;36.53;102627.44;5025650;28;20570;-49
2022/05/09 12:24:10;;;;;;;;;;;;;;;18.87;36.65;102628.88;5026265;28;19952;-53
2022/05/09 12:26:36;;;;;;;;;;;;;;;18.96;36.47;102621.28;5024934;28;19959;-47
2022/05/09 12:29:25;;;;;;;;;;;;;;;19.01;36.17;102613.81;5023639;28;19967;-47
2022/05/09 12:31:53;;;;;;;;;;;;;;;19.07;36.26;102613.44;4986982;28;19948;-50
2022/05/09 12:34:23;;;;;;;;;;;;;;;19.15;36.49;102599.59;5027886;28;19916;-47
2022/05/09 12:36:48;;;;;;;;;;;;;;;19.24;36.24;102608.81;5024799;28;19919;-48
2022/05/09 12:39:15;;;;;;;;;;;;;;;19.29;36.00;102596.00;5027163;28;20015;-47
2022/05/09 12:41:42;;;;;;;;;;;;;;;19.28;35.84;102595.16;5027840;28;19924;-47
2022/05/09 12:44:11;;;;;;;;;;;;;;;19.29;35.94;102594.22;5017612;28;19917;-46
2022/05/09 12:46:40;;;;;;;;;;;;;;;19.34;36.04;102596.56;5023506;28;19913;-47
2022/05/09 12:49:08;;;;;;;;;;;;;;;19.40;36.23;102582.84;5022027;28;19928;-50
2022/05/09 12:51:39;;;;;;;;;;;;;;;19.48;35.96;102579.66;5025361;28;19924;-50
2022/05/09 12:54:09;;;;;;;;;;;;;;;19.58;35.93;102579.91;5023491;28;19913;-52